Time;durP1;ratioP1;P1;durP2;ratioP2;P2;SDS_P1;SDS_P2;PMS_P1;PMS_P2;Temp;Humidity;BMP_temperature;BMP_pressure;BME280_temperature;BME280_humidity;BME280_pressure;Samples;Min_cycle;Max_cycle;Signal;HPM_P1;HPM_P2
2022/08/11 00:01:53;;;;;;;;;;;21.60;74.80;;;;;;5054141;28;19972;-64
2022/08/11 00:04:21;;;;;;;;;;;21.60;74.70;;;;;;5054349;28;19979;-64
2022/08/11 00:06:49;;;;;;;;;;;21.60;74.90;;;;;;5054272;28;19968;-65
2022/08/11 00:09:18;;;;;;;;;;;21.60;74.90;;;;;;5054186;28;20502;-64
2022/08/11 00:11:48;;;;;;;;;;;21.60;75.10;;;;;;5053836;28;19993;-65
2022/08/11 00:14:17;;;;;;;;;;;21.60;75.30;;;;;;5053937;28;20023;-64
2022/08/11 00:16:53;;;;;;;;;;;21.60;75.10;;;;;;5054528;28;20082;-65
2022/08/11 00:19:25;;;;;;;;;;;21.50;75.10;;;;;;5054034;28;20767;-65
2022/08/11 00:22:19;;;;;;;;;;;21.50;75.20;;;;;;5053981;28;20025;-65
2022/08/11 00:24:47;;;;;;;;;;;21.50;75.40;;;;;;5053683;28;20751;-65
2022/08/11 00:27:31;;;;;;;;;;;21.50;75.50;;;;;;5053920;28;19998;-65
2022/08/11 00:30:00;;;;;;;;;;;21.40;75.30;;;;;;5053700;28;20057;-64
2022/08/11 00:32:28;;;;;;;;;;;21.40;75.40;;;;;;5052999;28;20024;-65
2022/08/11 00:34:58;;;;;;;;;;;21.50;75.40;;;;;;5053401;28;20503;-64
2022/08/11 00:37:48;;;;;;;;;;;21.40;75.40;;;;;;5053856;28;19968;-65
2022/08/11 00:40:18;;;;;;;;;;;21.40;75.70;;;;;;5053368;28;19971;-65
2022/08/11 00:42:48;;;;;;;;;;;21.30;76.00;;;;;;5053680;28;19995;-65
2022/08/11 00:45:22;;;;;;;;;;;21.30;76.00;;;;;;5053194;28;20463;-65
2022/08/11 00:47:56;;;;;;;;;;;21.30;75.70;;;;;;5053696;28;19963;-65
2022/08/11 00:50:30;;;;;;;;;;;21.30;76.10;;;;;;5053042;28;19971;-64
2022/08/11 00:53:08;;;;;;;;;;;21.30;76.60;;;;;;5053579;28;20603;-64
2022/08/11 00:55:46;;;;;;;;;;;21.30;76.30;;;;;;5053237;28;20515;-65
2022/08/11 00:58:52;;;;;;;;;;;21.30;76.30;;;;;;5053427;28;20369;-65
2022/08/11 01:01:26;;;;;;;;;;;21.20;76.40;;;;;;5053004;28;20343;-65
2022/08/11 01:04:13;;;;;;;;;;;21.20;76.20;;;;;;5053240;28;20004;-65
2022/08/11 01:06:52;;;;;;;;;;;21.20;76.50;;;;;;5053179;28;20399;-65
2022/08/11 01:09:24;;;;;;;;;;;21.20;76.20;;;;;;5053085;28;20190;-65
2022/08/11 01:11:59;;;;;;;;;;;21.10;76.60;;;;;;5052939;28;20318;-65
2022/08/11 01:15:00;;;;;;;;;;;21.20;76.50;;;;;;5052907;28;20441;-65
2022/08/11 01:17:57;;;;;;;;;;;21.10;76.10;;;;;;5053020;28;19974;-64
2022/08/11 01:20:45;;;;;;;;;;;21.20;76.50;;;;;;5052652;28;19976;-65
2022/08/11 01:23:43;;;;;;;;;;;21.10;77.00;;;;;;5052906;28;20025;-64
2022/08/11 01:26:25;;;;;;;;;;;21.00;76.90;;;;;;5017359;28;20034;-65
2022/08/11 01:29:08;;;;;;;;;;;21.00;76.90;;;;;;5052865;28;19977;-65
2022/08/11 01:31:47;;;;;;;;;;;21.00;77.00;;;;;;5051722;28;19968;-65
2022/08/11 01:34:36;;;;;;;;;;;20.90;77.40;;;;;;5052634;28;20445;-64
2022/08/11 01:37:16;;;;;;;;;;;20.90;77.50;;;;;;5052282;28;20056;-65
2022/08/11 01:40:09;;;;;;;;;;;20.80;77.90;;;;;;5052479;28;20036;-64
2022/08/11 01:45:46;;;;;;;;;;;20.70;78.20;;;;;;5052420;28;19979;-65
2022/08/11 01:48:19;;;;;;;;;;;20.70;78.40;;;;;;5052585;28;20081;-65
2022/08/11 01:50:53;;;;;;;;;;;20.50;78.80;;;;;;5052101;28;20826;-65
2022/08/11 01:53:28;;;;;;;;;;;20.50;78.60;;;;;;5052209;28;20939;-64
2022/08/11 01:56:02;;;;;;;;;;;20.50;78.80;;;;;;5052678;28;20033;-65
2022/08/11 01:58:35;;;;;;;;;;;20.50;78.80;;;;;;5052263;28;20127;-65
2022/08/11 02:01:16;;;;;;;;;;;20.50;78.80;;;;;;5051153;28;20507;-64
2022/08/11 02:03:47;;;;;;;;;;;20.50;79.20;;;;;;5052170;28;20911;-65
2022/08/11 02:09:09;;;;;;;;;;;20.50;79.10;;;;;;5052243;28;21074;-64
2022/08/11 02:11:40;;;;;;;;;;;20.40;79.00;;;;;;5051767;28;20082;-65
2022/08/11 02:14:18;;;;;;;;;;;20.40;79.10;;;;;;5051966;28;19999;-65
2022/08/11 02:16:48;;;;;;;;;;;20.40;79.30;;;;;;5051738;28;20046;-64
2022/08/11 02:25:07;;;;;;;;;;;20.40;79.60;;;;;;5051767;28;20640;-65
2022/08/11 02:27:39;;;;;;;;;;;20.30;79.70;;;;;;5051896;28;20066;-64
2022/08/11 02:30:09;;;;;;;;;;;20.40;79.90;;;;;;5051582;28;20727;-65
2022/08/11 02:35:27;;;;;;;;;;;20.30;80.10;;;;;;5051609;28;20609;-64
2022/08/11 02:38:03;;;;;;;;;;;20.30;80.30;;;;;;5051716;28;20757;-65
2022/08/11 02:40:35;;;;;;;;;;;20.30;80.30;;;;;;5051424;28;20126;-64
2022/08/11 02:43:17;;;;;;;;;;;20.20;80.50;;;;;;5051693;28;20747;-65
2022/08/11 02:45:53;;;;;;;;;;;20.30;80.60;;;;;;5051721;28;20970;-65
2022/08/11 02:51:19;;;;;;;;;;;20.20;80.60;;;;;;5051529;28;20809;-64
2022/08/11 02:53:54;;;;;;;;;;;20.10;80.30;;;;;;5051490;28;20067;-64
2022/08/11 02:56:37;;;;;;;;;;;20.20;80.90;;;;;;5051546;28;20062;-64
2022/08/11 03:01:56;;;;;;;;;;;20.10;81.10;;;;;;5051213;28;19985;-64
2022/08/11 03:04:43;;;;;;;;;;;20.00;81.50;;;;;;5051507;28;20067;-65
2022/08/11 03:07:16;;;;;;;;;;;20.10;81.80;;;;;;5051425;28;20039;-64
2022/08/11 03:10:00;;;;;;;;;;;20.10;82.00;;;;;;5051270;28;19972;-65
2022/08/11 03:18:15;;;;;;;;;;;20.00;81.90;;;;;;5055142;28;21481;-63
2022/08/11 03:20:46;;;;;;;;;;;19.90;81.90;;;;;;5055289;28;20086;-65
2022/08/11 03:23:17;;;;;;;;;;;19.80;82.20;;;;;;5055324;28;19971;-64
2022/08/11 03:25:50;;;;;;;;;;;19.80;82.80;;;;;;5054837;28;20412;-65
2022/08/11 03:28:27;;;;;;;;;;;19.80;82.60;;;;;;5055146;28;20035;-65
2022/08/11 03:31:01;;;;;;;;;;;19.80;82.60;;;;;;5054933;28;20043;-65
2022/08/11 03:36:33;;;;;;;;;;;19.70;82.90;;;;;;5054794;28;20466;-64
2022/08/11 03:39:23;;;;;;;;;;;19.70;82.90;;;;;;5054797;28;19970;-64
2022/08/11 03:41:54;;;;;;;;;;;19.70;83.40;;;;;;5054613;28;20043;-64
2022/08/11 03:44:42;;;;;;;;;;;19.70;83.40;;;;;;5055031;28;19966;-65
2022/08/11 03:47:18;;;;;;;;;;;19.60;83.50;;;;;;5054639;28;19981;-65
2022/08/11 03:49:54;;;;;;;;;;;19.60;84.00;;;;;;5054650;28;19975;-64
2022/08/11 03:52:26;;;;;;;;;;;19.60;84.00;;;;;;5054777;28;19967;-64
2022/08/11 03:55:00;;;;;;;;;;;19.50;84.20;;;;;;5054473;28;19976;-64
2022/08/11 03:57:39;;;;;;;;;;;19.50;84.20;;;;;;5054345;28;20001;-65
2022/08/11 04:00:19;;;;;;;;;;;19.40;84.30;;;;;;5054310;28;19975;-65
2022/08/11 04:03:03;;;;;;;;;;;19.40;84.30;;;;;;5054548;28;20058;-65
2022/08/11 04:05:46;;;;;;;;;;;19.40;84.20;;;;;;5054257;28;20460;-65
2022/08/11 04:08:32;;;;;;;;;;;19.40;84.40;;;;;;5021250;28;20276;-64
2022/08/11 04:11:21;;;;;;;;;;;19.50;84.70;;;;;;5054007;28;20197;-65
2022/08/11 04:17:08;;;;;;;;;;;19.50;84.70;;;;;;5053877;28;20024;-64
2022/08/11 04:19:53;;;;;;;;;;;19.40;84.90;;;;;;5054016;28;20086;-64
2022/08/11 04:22:38;;;;;;;;;;;19.40;85.10;;;;;;5053390;28;20454;-65
2022/08/11 04:25:16;;;;;;;;;;;19.40;84.90;;;;;;5053350;28;21180;-65
2022/08/11 04:28:01;;;;;;;;;;;19.40;85.30;;;;;;5053845;28;20027;-65
2022/08/11 04:30:42;;;;;;;;;;;19.40;85.70;;;;;;5053315;28;19973;-65
2022/08/11 04:33:29;;;;;;;;;;;19.30;85.80;;;;;;5054111;28;19990;-64
2022/08/11 04:36:09;;;;;;;;;;;19.40;86.10;;;;;;5053533;28;19980;-64
2022/08/11 04:38:58;;;;;;;;;;;19.30;86.20;;;;;;5053638;28;20451;-64
2022/08/11 04:41:33;;;;;;;;;;;19.30;86.70;;;;;;5053403;28;20114;-64
2022/08/11 04:44:31;;;;;;;;;;;19.30;86.70;;;;;;5053898;28;20054;-64
2022/08/11 05:01:39;;;;;;;;;;;19.30;87.20;;;;;;5053845;28;20108;-64
2022/08/11 05:02:34;;;;;;;;;;;19.60;87.90;;;;;;5053406;28;21361;-64
2022/08/11 05:08:13;;;;;;;;;;;19.60;87.80;;;;;;5052746;28;20737;-64
2022/08/11 05:10:51;;;;;;;;;;;19.70;88.50;;;;;;5053000;28;20069;-64
2022/08/11 05:35:50;;;;;;;;;;;20.20;89.40;;;;;;5052552;28;20011;-65
2022/08/11 05:58:02;;;;;;;;;;;21.20;88.10;;;;;;5051896;28;20433;-65
2022/08/11 06:00:32;;;;;;;;;;;21.20;86.10;;;;;;5051897;28;20338;-65
2022/08/11 06:03:06;;;;;;;;;;;21.30;87.10;;;;;;5052254;28;19982;-65
2022/08/11 06:05:34;;;;;;;;;;;21.50;86.60;;;;;;5052143;28;19965;-63
2022/08/11 06:08:12;;;;;;;;;;;21.60;86.30;;;;;;5051645;28;20036;-65
2022/08/11 06:10:41;;;;;;;;;;;21.70;86.20;;;;;;5051896;28;20705;-65
2022/08/11 06:13:10;;;;;;;;;;;21.80;85.60;;;;;;5051986;28;20038;-64
2022/08/11 06:15:45;;;;;;;;;;;21.90;85.00;;;;;;5051971;28;20041;-65
2022/08/11 06:18:13;;;;;;;;;;;22.10;85.00;;;;;;5051668;28;20218;-65
2022/08/11 06:20:46;;;;;;;;;;;22.30;84.70;;;;;;5051499;28;19970;-65
2022/08/11 06:23:16;;;;;;;;;;;22.40;82.50;;;;;;5051863;28;20602;-65
2022/08/11 06:25:45;;;;;;;;;;;22.50;83.40;;;;;;5051800;28;20060;-65
2022/08/11 06:28:14;;;;;;;;;;;22.60;83.40;;;;;;5051521;28;20070;-64
2022/08/11 06:30:48;;;;;;;;;;;22.70;80.50;;;;;;5033109;28;19973;-64
2022/08/11 06:33:19;;;;;;;;;;;22.90;80.70;;;;;;5051937;28;19976;-65
2022/08/11 06:35:51;;;;;;;;;;;22.90;81.00;;;;;;5051562;28;20525;-65
2022/08/11 06:38:25;;;;;;;;;;;23.00;80.20;;;;;;5051679;28;20079;-64
2022/08/11 06:43:45;;;;;;;;;;;23.30;79.30;;;;;;5050924;28;20030;-65
2022/08/11 06:46:25;;;;;;;;;;;23.30;80.40;;;;;;5051856;28;19989;-64
2022/08/11 06:48:55;;;;;;;;;;;23.40;79.20;;;;;;5055857;28;20073;-65
2022/08/11 06:51:22;;;;;;;;;;;23.50;79.50;;;;;;5055332;28;20029;-65
2022/08/11 06:53:52;;;;;;;;;;;23.60;79.80;;;;;;5055618;28;20426;-64
2022/08/11 07:02:25;;;;;;;;;;;23.70;77.70;;;;;;5055526;28;20584;-64
2022/08/11 07:05:00;;;;;;;;;;;23.80;78.10;;;;;;5055511;28;21035;-64
2022/08/11 07:16:34;;;;;;;;;;;24.20;77.90;;;;;;5054801;28;20148;-65
2022/08/11 07:30:17;;;;;;;;;;;24.70;75.70;;;;;;5054543;28;20224;-65
2022/08/11 07:32:47;;;;;;;;;;;24.80;75.30;;;;;;5054436;28;20699;-65
2022/08/11 07:35:17;;;;;;;;;;;24.90;75.90;;;;;;5054875;28;20884;-64
2022/08/11 07:37:48;;;;;;;;;;;24.90;76.00;;;;;;5054685;28;21284;-65
2022/08/11 07:40:21;;;;;;;;;;;24.90;75.10;;;;;;5054622;28;20690;-65
2022/08/11 07:42:50;;;;;;;;;;;24.90;75.40;;;;;;5054790;28;20325;-65
2022/08/11 07:53:37;;;;;;;;;;;25.20;75.00;;;;;;5054411;28;20669;-65
2022/08/11 07:56:25;;;;;;;;;;;25.30;75.00;;;;;;5054676;28;20549;-65
2022/08/11 08:18:56;;;;;;;;;;;26.00;74.80;;;;;;5053956;28;20097;-64
2022/08/11 08:21:25;;;;;;;;;;;26.10;74.00;;;;;;5053595;28;20756;-65
2022/08/11 08:23:55;;;;;;;;;;;26.20;74.20;;;;;;5054060;28;20260;-65
2022/08/11 08:31:51;;;;;;;;;;;26.60;73.60;;;;;;5052975;28;20462;-65
2022/08/11 08:34:20;;;;;;;;;;;26.80;73.50;;;;;;5053759;28;20640;-65
2022/08/11 08:36:50;;;;;;;;;;;27.00;73.40;;;;;;5053476;28;20940;-65
2022/08/11 08:39:20;;;;;;;;;;;27.20;73.10;;;;;;5053538;28;21416;-65
2022/08/11 08:41:50;;;;;;;;;;;27.30;72.30;;;;;;5053587;28;20574;-65
2022/08/11 08:44:19;;;;;;;;;;;27.50;73.30;;;;;;5053472;28;25131;-65
2022/08/11 08:47:06;;;;;;;;;;;27.50;72.30;;;;;;5053397;28;20250;-65
2022/08/11 08:49:35;;;;;;;;;;;27.60;73.20;;;;;;5053585;28;20230;-65
2022/08/11 08:52:08;;;;;;;;;;;27.60;71.70;;;;;;5053274;28;25084;-65
2022/08/11 08:55:01;;;;;;;;;;;27.70;72.20;;;;;;5053383;28;20169;-64
2022/08/11 08:57:31;;;;;;;;;;;27.90;71.30;;;;;;5053382;28;20399;-65
2022/08/11 09:00:07;;;;;;;;;;;28.10;72.10;;;;;;5052934;28;25098;-65
2022/08/11 09:02:39;;;;;;;;;;;28.20;71.60;;;;;;5053168;28;20085;-65
2022/08/11 09:05:08;;;;;;;;;;;28.40;71.60;;;;;;5053263;28;20221;-65
2022/08/11 09:07:36;;;;;;;;;;;28.60;70.90;;;;;;5053128;28;20896;-65
2022/08/11 09:10:10;;;;;;;;;;;28.60;70.10;;;;;;5052830;28;21032;-65
2022/08/11 09:12:39;;;;;;;;;;;28.70;70.60;;;;;;5052825;28;20666;-65
2022/08/11 09:15:08;;;;;;;;;;;28.70;69.90;;;;;;5052979;28;20508;-65
2022/08/11 09:17:39;;;;;;;;;;;28.80;70.00;;;;;;5053215;28;20468;-65
2022/08/11 09:20:08;;;;;;;;;;;29.00;69.90;;;;;;5052845;28;20324;-65
2022/08/11 09:28:30;;;;;;;;;;;29.30;69.50;;;;;;5052754;28;20263;-66
2022/08/11 09:31:00;;;;;;;;;;;29.40;68.50;;;;;;5068172;22;20126;31
2022/08/11 09:33:30;;;;;;;;;;;29.50;68.70;;;;;;4983275;28;20202;-66
2022/08/11 09:40:27;;;;;;;;;;;29.80;68.60;;;;;;4998265;28;20246;-66
2022/08/11 09:41:33;;;;;;;;;;;30.00;68.10;;;;;;4992998;28;25064;-66
2022/08/11 09:47:14;;;;;;;;;;;30.30;67.30;;;;;;4993340;28;20197;-66
2022/08/11 09:49:43;;;;;;;;;;;30.70;67.10;;;;;;4993245;28;20248;-66
2022/08/11 09:52:13;;;;;;;;;;;31.00;66.80;;;;;;4993069;28;20262;-68
2022/08/11 09:54:41;;;;;;;;;;;31.10;65.50;;;;;;4993143;28;20299;-66
2022/08/11 10:00:05;;;;;;;;;;;31.60;65.50;;;;;;4992927;28;20211;-66
2022/08/11 10:02:41;;;;;;;;;;;31.70;63.80;;;;;;4992884;28;20213;-67
2022/08/11 10:07:55;;;;;;;;;;;31.40;63.00;;;;;;4993152;28;20200;-66
2022/08/11 10:10:23;;;;;;;;;;;31.70;64.40;;;;;;4993190;28;20624;-66
2022/08/11 10:12:56;;;;;;;;;;;31.70;64.60;;;;;;4992540;28;20238;-67
2022/08/11 10:15:37;;;;;;;;;;;31.70;63.20;;;;;;4992981;28;20222;-66
2022/08/11 10:20:54;;;;;;;;;;;31.70;62.20;;;;;;4992291;28;20214;-64
2022/08/11 10:34:59;;;;;;;;;;;31.70;61.80;;;;;;4992560;28;20275;-64
2022/08/11 10:37:33;;;;;;;;;;;31.80;62.20;;;;;;4992588;28;20202;-65
2022/08/11 10:40:22;;;;;;;;;;;31.90;61.70;;;;;;4992431;28;20213;-64
2022/08/11 10:43:01;;;;;;;;;;;32.20;63.10;;;;;;4992251;28;20109;-64
2022/08/11 10:48:20;;;;;;;;;;;32.30;61.30;;;;;;4992664;28;20311;-64
2022/08/11 10:59:08;;;;;;;;;;;31.90;61.00;;;;;;4992507;28;20203;-64
2022/08/11 11:01:39;;;;;;;;;;;31.80;60.70;;;;;;4992193;28;20197;-64
2022/08/11 11:04:10;;;;;;;;;;;31.60;60.60;;;;;;4992450;28;20637;-64
2022/08/11 11:06:43;;;;;;;;;;;31.60;61.80;;;;;;4992409;28;20549;-65
2022/08/11 11:09:14;;;;;;;;;;;31.80;61.30;;;;;;4992334;28;20246;-64
2022/08/11 11:20:25;;;;;;;;;;;32.00;60.10;;;;;;4931962;29;20268;-64
2022/08/11 11:23:07;;;;;;;;;;;32.20;59.90;;;;;;4983349;28;20136;-64
2022/08/11 11:25:38;;;;;;;;;;;32.60;59.50;;;;;;4992084;28;20757;-64
2022/08/11 11:28:14;;;;;;;;;;;33.00;60.80;;;;;;4992175;28;20181;-64
2022/08/11 11:30:47;;;;;;;;;;;33.40;59.40;;;;;;4991270;28;20179;-64
2022/08/11 11:33:20;;;;;;;;;;;33.50;59.20;;;;;;4993238;28;20757;-64
2022/08/11 11:35:53;;;;;;;;;;;33.60;59.60;;;;;;4995740;28;20591;-64
2022/08/11 11:38:21;;;;;;;;;;;33.50;59.60;;;;;;4995769;28;20079;-65
2022/08/11 11:41:23;;;;;;;;;;;33.30;58.50;;;;;;4995250;28;25077;-65
2022/08/11 11:43:37;;;;;;;;;;;33.30;58.80;;;;;;4995256;28;20192;-65
2022/08/11 11:46:09;;;;;;;;;;;33.10;58.10;;;;;;4995686;28;20172;-64
2022/08/11 11:48:39;;;;;;;;;;;33.30;58.70;;;;;;4995352;28;20314;-66
2022/08/11 11:51:08;;;;;;;;;;;33.40;58.80;;;;;;4995206;28;20047;-64
2022/08/11 11:53:35;;;;;;;;;;;33.30;58.40;;;;;;4994858;28;25067;-65
2022/08/11 11:56:04;;;;;;;;;;;33.40;58.20;;;;;;4995170;28;20087;-65
2022/08/11 12:01:18;;;;;;;;;;;33.10;58.30;;;;;;4995124;28;20151;-67
2022/08/11 12:03:49;;;;;;;;;;;33.00;58.40;;;;;;4994900;28;20649;-67
2022/08/11 12:06:18;;;;;;;;;;;33.10;57.90;;;;;;4995094;28;20103;-65
2022/08/11 12:08:48;;;;;;;;;;;33.60;58.30;;;;;;4995136;28;20190;-66
2022/08/11 12:14:05;;;;;;;;;;;33.90;58.10;;;;;;4969893;28;25099;-65
2022/08/11 12:16:38;;;;;;;;;;;33.70;57.60;;;;;;4995099;28;21121;-65
2022/08/11 12:19:10;;;;;;;;;;;33.50;57.20;;;;;;4995051;28;25122;-66
2022/08/11 12:27:19;;;;;;;;;;;33.40;56.70;;;;;;4994703;28;20281;-65
2022/08/11 12:27:22;;;;;;;;;;;33.30;56.80;;;;;;4994859;28;20426;-65
2022/08/11 12:29:54;;;;;;;;;;;33.40;57.20;;;;;;4994485;28;25084;-65
2022/08/11 12:32:23;;;;;;;;;;;33.90;57.20;;;;;;4993970;28;20119;-65
2022/08/11 12:34:56;;;;;;;;;;;34.00;57.20;;;;;;4994292;28;20238;-65
2022/08/11 12:37:28;;;;;;;;;;;34.50;56.60;;;;;;4994592;28;20705;-65
2022/08/11 12:46:07;;;;;;;;;;;33.80;56.70;;;;;;4993829;28;20082;-65
2022/08/11 12:54:40;;;;;;;;;;;34.10;56.60;;;;;;4993893;28;20200;-64
2022/08/11 13:05:36;;;;;;;;;;;34.40;55.90;;;;;;4994187;28;20128;-65
2022/08/11 13:08:14;;;;;;;;;;;34.00;55.80;;;;;;4994004;28;25070;-65
2022/08/11 13:13:28;;;;;;;;;;;34.40;56.30;;;;;;4994100;28;20254;-64
2022/08/11 13:16:16;;;;;;;;;;;34.50;55.20;;;;;;4994111;28;20213;-65
2022/08/11 13:18:45;;;;;;;;;;;34.50;55.30;;;;;;4993625;28;20205;-65
2022/08/11 13:21:13;;;;;;;;;;;34.40;55.40;;;;;;4993630;28;20418;-67
2022/08/11 13:23:50;;;;;;;;;;;34.50;55.00;;;;;;4993653;28;20893;-66
2022/08/11 13:26:33;;;;;;;;;;;34.80;55.60;;;;;;4993586;28;25153;-67
2022/08/11 13:29:18;;;;;;;;;;;35.10;54.70;;;;;;4993705;28;20724;-66
2022/08/11 13:31:46;;;;;;;;;;;35.20;54.80;;;;;;4992880;28;20360;-66
2022/08/11 13:34:15;;;;;;;;;;;35.10;54.30;;;;;;4993401;28;20246;-66
2022/08/11 13:36:43;;;;;;;;;;;34.70;54.40;;;;;;4993725;28;20200;-66
2022/08/11 13:39:13;;;;;;;;;;;35.00;54.70;;;;;;4993307;28;20216;-66
2022/08/11 13:41:42;;;;;;;;;;;35.10;54.10;;;;;;4993079;28;20250;-66
2022/08/11 13:44:11;;;;;;;;;;;35.00;54.10;;;;;;4993086;28;20215;-65
2022/08/11 13:46:42;;;;;;;;;;;34.80;54.10;;;;;;4993403;28;21079;-66
2022/08/11 13:49:11;;;;;;;;;;;34.90;53.90;;;;;;4993371;28;20433;-66
2022/08/11 13:51:39;;;;;;;;;;;35.30;53.50;;;;;;4992894;28;20221;-66
2022/08/11 13:54:08;;;;;;;;;;;35.90;53.70;;;;;;4993049;28;20185;-65
2022/08/11 13:56:39;;;;;;;;;;;35.90;53.60;;;;;;4993051;28;20198;-66
2022/08/11 13:59:07;;;;;;;;;;;35.50;53.40;;;;;;4993472;28;20247;-66
2022/08/11 14:01:38;;;;;;;;;;;35.00;53.60;;;;;;4992833;28;20730;-66
2022/08/11 14:04:28;;;;;;;;;;;34.90;53.70;;;;;;4992880;28;25130;-66
2022/08/11 14:07:00;;;;;;;;;;;34.40;53.30;;;;;;4993050;28;20133;-66
2022/08/11 14:09:29;;;;;;;;;;;34.40;53.90;;;;;;4992939;28;25064;-66
2022/08/11 14:14:53;;;;;;;;;;;34.70;53.40;;;;;;4992940;28;20195;-66
2022/08/11 14:17:21;;;;;;;;;;;34.80;53.20;;;;;;4992929;28;25065;-66
2022/08/11 14:20:10;;;;;;;;;;;34.90;53.90;;;;;;4992725;28;20265;-66
2022/08/11 14:22:57;;;;;;;;;;;35.20;53.30;;;;;;4992796;28;20289;-66
2022/08/11 14:25:25;;;;;;;;;;;35.30;53.20;;;;;;4992537;28;25144;-66
2022/08/11 14:28:14;;;;;;;;;;;35.50;52.70;;;;;;4992799;28;20041;-66
2022/08/11 14:31:04;;;;;;;;;;;36.40;52.50;;;;;;4991916;28;20692;-66
2022/08/11 14:33:32;;;;;;;;;;;36.20;52.30;;;;;;4975175;28;25083;-66
2022/08/11 14:36:20;;;;;;;;;;;36.40;52.40;;;;;;4992623;28;25075;-66
2022/08/11 14:38:48;;;;;;;;;;;36.20;52.20;;;;;;4992432;28;20292;-66
2022/08/11 14:47:05;;;;;;;;;;;35.70;51.80;;;;;;4992601;28;20150;-66
2022/08/11 14:49:54;;;;;;;;;;;35.70;52.30;;;;;;4992389;28;20215;-66
2022/08/11 14:52:37;;;;;;;;;;;36.00;52.70;;;;;;4992388;28;20223;-66
2022/08/11 14:57:53;;;;;;;;;;;35.40;52.70;;;;;;4992318;28;20240;-65
2022/08/11 15:00:24;;;;;;;;;;;35.30;52.50;;;;;;4992261;28;20323;-65
2022/08/11 15:03:10;;;;;;;;;;;35.40;52.20;;;;;;4992217;28;20738;-66
2022/08/11 15:05:42;;;;;;;;;;;35.40;52.90;;;;;;4992141;28;20203;-66
2022/08/11 15:12:07;;;;;;;;;;;35.20;52.60;;;;;;4995257;28;20121;-66
2022/08/11 15:13:59;;;;;;;;;;;34.70;52.40;;;;;;4996086;28;20337;-67
2022/08/11 15:19:15;;;;;;;;;;;34.90;52.40;;;;;;4996173;28;20229;-66
2022/08/11 15:24:29;;;;;;;;;;;34.50;52.50;;;;;;4995696;28;20228;-67
2022/08/11 15:38:06;;;;;;;;;;;34.20;52.50;;;;;;5054776;28;25080;-64
2022/08/11 15:46:12;;;;;;;;;;;34.70;53.10;;;;;;5054675;28;20203;-64
2022/08/11 15:48:45;;;;;;;;;;;34.80;52.00;;;;;;5054979;28;25140;-64
2022/08/11 15:51:16;;;;;;;;;;;35.10;52.40;;;;;;5054569;28;20583;-64
2022/08/11 15:53:46;;;;;;;;;;;35.00;52.20;;;;;;5054807;28;19921;-64
2022/08/11 15:56:25;;;;;;;;;;;34.40;52.20;;;;;;5054552;28;20751;-64
2022/08/11 16:04:56;;;;;;;;;;;34.00;52.70;;;;;;5054355;28;20604;-64
2022/08/11 16:07:26;;;;;;;;;;;33.60;53.00;;;;;;5054394;28;20789;-64
2022/08/11 16:09:57;;;;;;;;;;;33.30;53.30;;;;;;5053949;28;25058;-65
2022/08/11 16:12:28;;;;;;;;;;;33.20;53.40;;;;;;5054340;28;20183;-64
2022/08/11 16:17:48;;;;;;;;;;;32.90;53.60;;;;;;5054273;28;20962;-65
2022/08/11 16:20:20;;;;;;;;;;;32.40;54.00;;;;;;5052614;28;25121;-64
2022/08/11 16:22:49;;;;;;;;;;;32.40;54.60;;;;;;5054253;28;21208;-64
2022/08/11 16:25:29;;;;;;;;;;;32.10;54.60;;;;;;5054032;28;20779;-65
2022/08/11 16:28:19;;;;;;;;;;;31.90;54.80;;;;;;5054138;28;20284;-64
2022/08/11 16:30:48;;;;;;;;;;;31.70;55.20;;;;;;5053505;28;19972;-64
2022/08/11 16:33:16;;;;;;;;;;;31.50;54.70;;;;;;5053615;28;25084;-64
2022/08/11 16:38:52;;;;;;;;;;;31.20;55.10;;;;;;5054051;28;19991;-67
2022/08/11 16:47:05;;;;;;;;;;;31.00;56.00;;;;;;5053545;28;20825;-66
2022/08/11 16:49:34;;;;;;;;;;;30.80;55.80;;;;;;5053526;28;20182;-66
2022/08/11 16:52:04;;;;;;;;;;;30.80;56.30;;;;;;5053520;28;20737;-67
2022/08/11 16:54:33;;;;;;;;;;;30.80;56.90;;;;;;5053875;28;20753;-67
2022/08/11 16:59:46;;;;;;;;;;;30.70;56.10;;;;;;5052635;28;20152;-65
2022/08/11 17:13:07;;;;;;;;;;;30.60;56.30;;;;;;5053490;28;20263;-65
2022/08/11 17:13:33;;;;;;;;;;;30.20;56.70;;;;;;5053233;28;21167;-66
2022/08/11 17:16:10;;;;;;;;;;;30.20;56.90;;;;;;5053239;28;20438;-65
2022/08/11 17:18:43;;;;;;;;;;;30.20;57.00;;;;;;5053184;28;19997;-65
2022/08/11 17:21:13;;;;;;;;;;;30.10;57.20;;;;;;5052393;28;20111;-66
2022/08/11 17:23:51;;;;;;;;;;;30.00;56.80;;;;;;5053257;28;20786;-64
2022/08/11 17:26:21;;;;;;;;;;;30.00;57.30;;;;;;5052936;28;20224;-64
2022/08/11 17:28:51;;;;;;;;;;;30.00;57.50;;;;;;5053005;28;20109;-64
2022/08/11 17:36:52;;;;;;;;;;;30.00;58.10;;;;;;5052725;28;20390;-64
2022/08/11 17:39:23;;;;;;;;;;;30.00;58.10;;;;;;5053057;28;20240;-65
2022/08/11 17:50:09;;;;;;;;;;;29.70;58.00;;;;;;5052176;28;20238;-65
2022/08/11 18:01:06;;;;;;;;;;;29.70;59.20;;;;;;5051841;28;20270;-64
2022/08/11 18:03:38;;;;;;;;;;;29.60;59.00;;;;;;5052240;28;20229;-64
2022/08/11 18:06:07;;;;;;;;;;;29.60;59.00;;;;;;5052217;28;20805;-65
